createdAt,value
2019-01-14T00:00:56.541Z,3.00
2019-01-14T00:03:37.876Z,2.70
2019-01-14T00:06:25.102Z,8.63
2019-01-14T00:09:05.456Z,2.37
2019-01-14T00:11:52.249Z,4.40
2019-01-14T00:14:32.161Z,2.70
2019-01-14T00:17:18.383Z,8.43
2019-01-14T00:19:59.577Z,4.77
2019-01-14T00:22:39.372Z,6.97
2019-01-14T00:25:25.589Z,3.90
2019-01-14T00:28:05.704Z,9.77
2019-01-14T00:30:52.045Z,8.67
2019-01-14T00:33:31.897Z,5.00
2019-01-14T00:36:18.346Z,5.77
2019-01-14T00:38:58.100Z,4.63
2019-01-14T00:41:44.308Z,4.00
2019-01-14T00:44:25.641Z,10.03
2019-01-14T00:47:12.112Z,8.80
2019-01-14T00:49:52.419Z,6.87
2019-01-14T00:52:38.636Z,7.87
2019-01-14T00:55:19.497Z,9.90
2019-01-14T00:58:00.000Z,26.63
2019-01-14T01:00:46.219Z,11.37
2019-01-14T01:03:25.722Z,8.83
2019-01-14T01:06:13.204Z,6.03
2019-01-14T01:08:53.092Z,2.97
2019-01-14T01:11:39.675Z,2.60
2019-01-14T01:14:20.304Z,6.50
2019-01-14T01:17:07.566Z,4.70
2019-01-14T01:19:51.201Z,6.80
2019-01-14T01:22:38.307Z,5.33
2019-01-14T01:25:18.744Z,4.30
2019-01-14T01:28:05.171Z,6.50
2019-01-14T01:30:44.872Z,7.93
2019-01-14T01:33:31.376Z,5.37
2019-01-14T01:36:11.295Z,6.13
2019-01-14T01:38:57.496Z,12.00
2019-01-14T01:41:37.240Z,6.70
2019-01-14T01:44:23.677Z,6.93
2019-01-14T01:47:04.459Z,4.60
2019-01-14T01:49:50.682Z,11.17
2019-01-14T01:52:31.713Z,9.47
2019-01-14T01:55:17.967Z,11.57
2019-01-14T01:57:58.879Z,7.30
2019-01-14T02:00:39.885Z,6.60
2019-01-14T02:03:26.088Z,13.60
2019-01-14T02:06:06.259Z,4.27
2019-01-14T02:08:54.386Z,9.67
2019-01-14T02:11:45.662Z,5.07
2019-01-14T02:14:32.152Z,12.30
2019-01-14T02:17:11.845Z,7.97
2019-01-14T02:19:58.071Z,14.83
2019-01-14T02:22:38.849Z,9.40
2019-01-14T02:25:26.051Z,8.93
2019-01-14T02:28:05.883Z,11.13
2019-01-14T02:30:52.115Z,9.50
2019-01-14T02:33:32.202Z,10.40
2019-01-14T02:36:18.406Z,8.47
2019-01-14T02:38:58.118Z,7.20
2019-01-14T02:41:44.334Z,21.87
2019-01-14T02:44:24.537Z,5.83
2019-01-14T02:47:04.586Z,9.43
2019-01-14T02:50:11.955Z,19.53
2019-01-14T02:52:51.685Z,11.33
2019-01-14T02:55:37.883Z,13.83
2019-01-14T02:58:17.137Z,14.93
2019-01-14T03:01:03.461Z,15.27
2019-01-14T03:03:43.264Z,16.40
2019-01-14T03:06:30.054Z,9.37
2019-01-14T03:09:09.393Z,16.00
2019-01-14T03:11:55.834Z,8.40
2019-01-14T03:14:35.471Z,11.87
2019-01-14T03:17:21.933Z,14.83
2019-01-14T03:20:03.117Z,23.73
2019-01-14T03:22:49.617Z,12.97
2019-01-14T03:25:29.628Z,16.27
2019-01-14T03:28:16.077Z,24.07
2019-01-14T03:30:55.615Z,14.80
2019-01-14T03:33:41.899Z,13.80
2019-01-14T03:36:22.237Z,20.20
2019-01-14T03:39:08.713Z,17.77
2019-01-14T03:41:48.860Z,16.83
2019-01-14T03:44:35.329Z,13.30
2019-01-14T03:47:16.308Z,13.17
2019-01-14T03:50:24.533Z,24.60
2019-01-14T03:53:04.724Z,10.13
2019-01-14T03:55:50.920Z,18.30
2019-01-14T03:58:31.145Z,19.87
2019-01-14T04:01:18.350Z,16.27
2019-01-14T04:03:58.915Z,25.00
2019-01-14T04:06:45.105Z,15.27
2019-01-14T04:09:24.961Z,16.33
2019-01-14T04:12:11.448Z,21.37
2019-01-14T04:14:52.392Z,13.00
2019-01-14T04:17:38.800Z,15.00
2019-01-14T04:20:18.537Z,16.40
2019-01-14T04:23:04.983Z,21.83
2019-01-14T04:25:44.388Z,23.93
2019-01-14T04:28:30.865Z,9.40
2019-01-14T04:31:10.837Z,17.20
2019-01-14T04:33:57.163Z,15.10
2019-01-14T04:36:37.293Z,17.63
2019-01-14T04:39:23.911Z,33.13
2019-01-14T04:42:03.909Z,18.43
2019-01-14T04:44:50.436Z,22.47
2019-01-14T04:47:30.546Z,27.37
2019-01-14T04:50:38.540Z,22.10
2019-01-14T04:53:18.185Z,14.73
2019-01-14T04:55:44.465Z,16.83
2019-01-14T04:58:24.529Z,25.53
2019-01-14T05:01:10.721Z,19.50
2019-01-14T05:03:50.611Z,17.70
2019-01-14T05:06:16.977Z,29.70
2019-01-14T05:08:43.278Z,32.97
2019-01-14T05:11:24.512Z,21.47
2019-01-14T05:14:10.723Z,12.87
2019-01-14T05:16:37.318Z,22.67
2019-01-14T05:19:03.881Z,18.23
2019-01-14T05:21:30.820Z,23.43
2019-01-14T05:23:57.509Z,29.77
2019-01-14T05:26:23.869Z,13.13
2019-01-14T05:29:05.677Z,17.70
2019-01-14T05:31:46.247Z,20.80
2019-01-14T05:34:32.726Z,17.83
2019-01-14T05:37:12.481Z,14.80
2019-01-14T05:39:58.786Z,21.97
2019-01-14T05:42:38.705Z,22.30
2019-01-14T05:45:25.046Z,27.07
2019-01-14T05:48:05.871Z,16.27
2019-01-14T05:50:52.347Z,19.03
2019-01-14T05:53:31.805Z,15.43
2019-01-14T05:56:18.017Z,11.10
2019-01-14T05:58:59.474Z,20.70
2019-01-14T06:01:45.952Z,19.40
2019-01-14T06:04:26.492Z,24.97
2019-01-14T06:07:06.860Z,15.73
2019-01-14T06:09:53.074Z,16.90
2019-01-14T06:12:34.081Z,20.87
2019-01-14T06:15:20.393Z,13.40
2019-01-14T06:18:00.620Z,21.53
2019-01-14T06:20:46.860Z,21.47
2019-01-14T06:23:27.794Z,24.93
2019-01-14T06:26:07.117Z,22.60
2019-01-14T06:28:53.323Z,16.87
2019-01-14T06:31:33.584Z,13.70
2019-01-14T06:34:14.970Z,12.13
2019-01-14T06:36:56.305Z,24.43
2019-01-14T06:39:36.776Z,19.93
2019-01-14T06:42:23.215Z,14.73
2019-01-14T06:45:04.993Z,26.47
2019-01-14T06:47:51.286Z,16.70
2019-01-14T06:50:31.362Z,18.50
2019-01-14T06:53:17.560Z,22.27
2019-01-14T06:55:57.581Z,13.20
2019-01-14T06:58:43.980Z,20.93
2019-01-14T07:01:24.792Z,13.10
2019-01-14T07:04:11.240Z,16.83
2019-01-14T07:06:51.958Z,27.10
2019-01-14T07:09:38.200Z,32.40
2019-01-14T07:12:18.558Z,24.53
2019-01-14T07:14:58.856Z,22.33
2019-01-14T07:17:45.297Z,12.30
2019-01-14T07:20:25.180Z,20.93
2019-01-14T07:23:11.379Z,18.57
2019-01-14T07:25:51.142Z,24.23
2019-01-14T07:28:37.349Z,13.53
2019-01-14T07:31:17.126Z,19.33
2019-01-14T07:34:03.402Z,23.10
2019-01-14T07:36:42.830Z,25.43
2019-01-14T07:39:29.308Z,21.43
2019-01-14T07:42:09.261Z,26.60
2019-01-14T07:44:55.700Z,25.97
2019-01-14T07:47:35.308Z,23.13
2019-01-14T07:50:22.801Z,20.73
2019-01-14T07:53:05.539Z,20.17
2019-01-14T07:55:52.065Z,27.87
2019-01-14T07:58:32.349Z,15.73
2019-01-14T08:01:13.079Z,28.37
2019-01-14T08:03:59.315Z,20.87
2019-01-14T08:06:39.496Z,20.87
2019-01-14T08:09:25.810Z,12.90
2019-01-14T08:12:05.579Z,12.50
2019-01-14T08:14:52.108Z,23.73
2019-01-14T08:17:38.505Z,14.03
2019-01-14T08:20:18.809Z,15.60
2019-01-14T08:23:04.985Z,22.97
2019-01-14T08:25:44.402Z,14.70
2019-01-14T08:28:30.596Z,11.27
2019-01-14T08:31:11.577Z,17.47
2019-01-14T08:33:58.020Z,18.37
2019-01-14T08:36:37.978Z,20.73
2019-01-14T08:39:24.190Z,11.20
2019-01-14T08:42:05.463Z,14.40
2019-01-14T08:44:52.033Z,13.40
2019-01-14T08:47:31.667Z,18.47
2019-01-14T08:50:13.861Z,16.70
2019-01-14T08:53:00.156Z,16.80
2019-01-14T08:55:40.567Z,11.93
2019-01-14T08:58:27.040Z,9.73
2019-01-14T09:01:07.264Z,16.13
2019-01-14T09:03:53.457Z,4.83
2019-01-14T09:06:33.616Z,7.43
2019-01-14T09:09:19.830Z,9.93
2019-01-14T09:11:59.797Z,12.70
2019-01-14T09:14:40.258Z,15.20
2019-01-14T09:17:26.736Z,7.37
2019-01-14T09:20:09.279Z,14.67
2019-01-14T09:22:48.758Z,8.13
2019-01-14T09:25:29.161Z,13.03
2019-01-14T09:28:09.406Z,6.80
2019-01-14T09:30:55.594Z,10.80
2019-01-14T09:33:35.561Z,13.17
2019-01-14T09:36:21.766Z,13.93
2019-01-14T09:39:01.832Z,14.13
2019-01-14T09:41:50.177Z,13.30
2019-01-14T09:44:30.094Z,14.67
2019-01-14T09:47:16.352Z,8.30
2019-01-14T09:49:56.286Z,9.33
2019-01-14T09:52:42.541Z,9.27
2019-01-14T09:55:22.817Z,7.30
2019-01-14T09:58:09.347Z,11.60
2019-01-14T10:00:49.856Z,16.60
2019-01-14T10:03:36.199Z,8.43
2019-01-14T10:06:16.172Z,11.93
2019-01-14T10:09:24.280Z,8.23
2019-01-14T10:12:03.783Z,13.40
2019-01-14T10:14:50.312Z,14.10
2019-01-14T10:17:30.516Z,12.27
2019-01-14T10:20:16.756Z,6.73
2019-01-14T10:22:56.639Z,24.33
2019-01-14T10:25:43.240Z,11.60
2019-01-14T10:28:23.440Z,6.27
2019-01-14T10:31:09.732Z,15.93
2019-01-14T10:33:50.130Z,15.57
2019-01-14T10:36:36.367Z,8.53
2019-01-14T10:39:17.144Z,16.47
2019-01-14T10:42:05.011Z,10.13
2019-01-14T10:45:07.836Z,9.40
2019-01-14T10:47:35.423Z,15.53
2019-01-14T10:50:43.676Z,9.40
2019-01-14T10:53:24.813Z,6.33
2019-01-14T10:56:04.542Z,10.93
2019-01-14T10:58:50.730Z,5.57
2019-01-14T11:01:31.826Z,10.70
2019-01-14T11:03:58.209Z,17.03
2019-01-14T11:06:37.714Z,4.90
2019-01-14T11:09:23.919Z,9.10
2019-01-14T11:12:05.378Z,8.83
2019-01-14T11:14:51.543Z,12.00
2019-01-14T11:17:34.169Z,12.83
2019-01-14T11:20:42.516Z,15.73
2019-01-14T11:23:25.287Z,13.60
2019-01-14T11:26:11.995Z,9.30
2019-01-14T11:28:52.746Z,9.90
2019-01-14T11:31:38.942Z,12.40
2019-01-14T11:34:19.299Z,12.33
2019-01-14T11:37:05.479Z,18.97
2019-01-14T11:39:45.725Z,18.80
2019-01-14T11:42:32.087Z,17.13
2019-01-14T11:45:12.452Z,12.83
2019-01-14T11:47:58.746Z,12.53
2019-01-14T11:50:38.303Z,12.50
2019-01-14T11:53:18.701Z,8.10
2019-01-14T11:55:58.577Z,11.80
2019-01-14T11:58:44.795Z,9.57
2019-01-14T12:01:24.994Z,10.77
2019-01-14T12:04:11.220Z,5.93
2019-01-14T12:06:51.941Z,14.03
2019-01-14T12:09:38.393Z,10.00
2019-01-14T12:12:19.820Z,6.80
2019-01-14T12:15:26.286Z,8.80
2019-01-14T12:18:05.858Z,7.23
2019-01-14T12:20:52.129Z,10.63
2019-01-14T12:23:32.003Z,9.60
2019-01-14T12:26:18.500Z,6.60
2019-01-14T12:28:58.334Z,6.00
2019-01-14T12:31:44.853Z,9.30
2019-01-14T12:34:25.432Z,13.60
2019-01-14T12:37:11.891Z,13.80
2019-01-14T12:39:54.542Z,8.07
2019-01-14T12:42:41.074Z,6.93
2019-01-14T12:45:20.492Z,3.47
2019-01-14T12:48:00.735Z,3.07
2019-01-14T12:50:47.221Z,14.20
2019-01-14T12:53:26.923Z,12.50
2019-01-14T12:56:13.121Z,6.40
2019-01-14T12:58:52.523Z,6.80
2019-01-14T13:01:38.794Z,5.30
2019-01-14T13:04:18.624Z,11.53
2019-01-14T13:07:05.211Z,10.10
2019-01-14T13:09:45.020Z,7.23
2019-01-14T13:12:31.510Z,9.80
2019-01-14T13:15:12.357Z,10.90
2019-01-14T13:17:58.868Z,7.87
2019-01-14T13:20:38.719Z,10.40
2019-01-14T13:23:25.189Z,6.73
2019-01-14T13:26:05.268Z,7.47
2019-01-14T13:28:51.463Z,8.50
2019-01-14T13:31:31.531Z,5.77
2019-01-14T13:34:18.033Z,8.03
2019-01-14T13:36:58.008Z,10.03
2019-01-14T13:39:37.831Z,8.60
2019-01-14T13:42:18.278Z,6.70
2019-01-14T13:45:26.512Z,7.50
2019-01-14T13:48:06.877Z,10.93
2019-01-14T13:50:53.074Z,13.63
2019-01-14T13:53:32.897Z,14.00
2019-01-14T13:56:19.116Z,7.93
2019-01-14T13:58:59.099Z,12.30
2019-01-14T14:01:45.544Z,4.07
2019-01-14T14:04:25.558Z,9.87
2019-01-14T14:07:11.773Z,7.50
2019-01-14T14:09:51.940Z,6.80
2019-01-14T14:12:38.420Z,9.03
2019-01-14T14:15:18.618Z,5.60
2019-01-14T14:18:04.837Z,6.03
2019-01-14T14:20:44.514Z,2.33
2019-01-14T14:23:31.124Z,3.47
2019-01-14T14:26:10.964Z,5.80
2019-01-14T14:28:57.436Z,5.07
2019-01-14T14:31:37.304Z,10.03
2019-01-14T14:34:23.482Z,7.97
2019-01-14T14:37:03.574Z,3.73
2019-01-14T14:39:50.011Z,6.00
2019-01-14T14:42:29.618Z,12.60
2019-01-14T14:45:10.327Z,26.57
2019-01-14T14:47:56.776Z,4.07
2019-01-14T14:50:36.577Z,15.57
2019-01-14T14:53:22.769Z,7.13
2019-01-14T14:56:02.763Z,10.27
2019-01-14T14:58:48.959Z,7.77
2019-01-14T15:01:29.553Z,7.73
2019-01-14T15:04:16.648Z,3.77
2019-01-14T15:06:56.716Z,4.23
2019-01-14T15:09:43.200Z,8.70
2019-01-14T15:12:22.807Z,9.60
2019-01-14T15:18:29.999Z,11.37
2019-01-14T15:21:10.799Z,6.87
2019-01-14T15:23:51.795Z,4.80
2019-01-14T15:26:37.969Z,5.23
2019-01-14T15:29:17.634Z,6.17
2019-01-14T15:32:04.137Z,6.00
2019-01-14T15:34:43.860Z,8.70
2019-01-14T15:37:24.193Z,7.03
2019-01-14T15:40:32.197Z,5.63
2019-01-14T15:43:11.814Z,3.80
2019-01-14T15:45:52.298Z,1.70
2019-01-14T15:48:33.270Z,1.93
2019-01-14T15:51:19.460Z,4.80
2019-01-14T15:54:00.753Z,8.33
2019-01-14T15:56:46.973Z,6.00
2019-01-14T15:59:27.049Z,7.03
2019-01-14T16:02:13.534Z,7.90
2019-01-14T16:04:53.299Z,4.40
2019-01-14T16:07:39.496Z,6.73
2019-01-14T16:10:20.194Z,5.63
2019-01-14T16:13:06.891Z,6.30
2019-01-14T16:15:46.543Z,12.57
2019-01-14T16:18:26.828Z,4.43
2019-01-14T16:21:13.374Z,7.10
2019-01-14T16:23:53.902Z,4.83
2019-01-14T16:26:40.372Z,8.70
2019-01-14T16:29:20.496Z,3.50
2019-01-14T16:32:08.012Z,8.80
2019-01-14T16:34:55.535Z,3.00
2019-01-14T16:37:41.846Z,5.17
2019-01-14T16:40:21.761Z,1.97
2019-01-14T16:43:04.407Z,8.30
2019-01-14T16:45:44.806Z,6.10
2019-01-14T16:48:31.312Z,3.83
2019-01-14T16:51:10.960Z,3.23
2019-01-14T16:53:57.538Z,3.43
2019-01-14T16:56:37.444Z,5.40
2019-01-14T16:59:24.006Z,4.37
2019-01-14T17:02:03.715Z,4.67
2019-01-14T17:04:49.996Z,8.90
2019-01-14T17:07:31.140Z,6.07
2019-01-14T17:10:17.645Z,3.80
2019-01-14T17:12:57.742Z,4.67
2019-01-14T17:15:44.466Z,9.50
2019-01-14T17:18:23.785Z,4.23
2019-01-14T17:21:10.452Z,9.40
2019-01-14T17:23:50.215Z,7.20
2019-01-14T17:26:36.895Z,9.07
2019-01-14T17:29:16.760Z,7.30
2019-01-14T17:31:56.896Z,10.43
2019-01-14T17:34:37.156Z,4.10
2019-01-14T17:37:17.208Z,10.40
2019-01-14T17:40:32.300Z,4.40
2019-01-14T17:43:17.937Z,7.83
2019-01-14T17:46:05.472Z,6.23
2019-01-14T17:49:05.675Z,8.63
2019-01-14T17:51:51.971Z,12.33
2019-01-14T17:54:32.443Z,5.73
2019-01-14T17:57:19.940Z,6.57
2019-01-14T18:00:00.452Z,6.50
2019-01-14T18:02:46.926Z,6.43
2019-01-14T18:05:26.647Z,10.97
2019-01-14T18:08:12.847Z,3.60
2019-01-14T18:10:53.098Z,10.93
2019-01-14T18:13:39.534Z,9.10
2019-01-14T18:16:21.834Z,6.93
2019-01-14T18:19:08.137Z,4.20
2019-01-14T18:21:48.757Z,6.60
2019-01-14T18:24:35.279Z,21.17
2019-01-14T18:27:16.181Z,13.87
2019-01-14T18:29:56.003Z,9.73
2019-01-14T18:32:36.523Z,6.83
2019-01-14T18:35:22.859Z,9.90
2019-01-14T18:38:02.304Z,11.93
2019-01-14T18:40:48.720Z,6.73
2019-01-14T18:43:29.186Z,5.27
2019-01-14T18:46:09.234Z,9.60
2019-01-14T18:48:55.636Z,3.87
2019-01-14T18:51:35.648Z,10.93
2019-01-14T18:54:22.311Z,13.60
2019-01-14T18:57:02.755Z,14.83
2019-01-14T18:59:49.674Z,9.13
2019-01-14T19:02:29.994Z,11.57
2019-01-14T19:05:16.353Z,9.60
2019-01-14T19:07:57.544Z,3.57
2019-01-14T19:10:43.847Z,11.83
2019-01-14T19:13:24.062Z,7.90
2019-01-14T19:16:10.526Z,4.17
2019-01-14T19:18:52.195Z,5.60
2019-01-14T19:21:38.671Z,7.43
2019-01-14T19:24:18.877Z,7.73
2019-01-14T19:26:59.094Z,11.40
2019-01-14T19:29:45.569Z,13.27
2019-01-14T19:32:25.095Z,11.63
2019-01-14T19:35:11.608Z,10.43
2019-01-14T19:37:52.426Z,15.17
2019-01-14T19:40:38.628Z,7.60
2019-01-14T19:43:19.087Z,7.20
2019-01-14T19:45:59.440Z,4.67
2019-01-14T19:48:46.110Z,8.60
2019-01-14T19:51:25.976Z,10.53
2019-01-14T19:54:12.205Z,11.37
2019-01-14T19:56:51.946Z,7.00
2019-01-14T19:59:38.477Z,4.33
2019-01-14T20:02:17.972Z,5.47
2019-01-14T20:08:06.880Z,5.77
2019-01-14T20:10:47.052Z,10.43
2019-01-14T20:13:27.708Z,8.23
2019-01-14T20:16:08.401Z,6.70
2019-01-14T20:18:55.218Z,7.97
2019-01-14T20:21:35.272Z,14.13
2019-01-14T20:24:37.073Z,10.83
2019-01-14T20:27:10.379Z,8.50
2019-01-14T20:29:56.862Z,11.83
2019-01-14T20:32:36.782Z,4.37
2019-01-14T20:35:23.024Z,5.33
2019-01-14T20:38:03.274Z,7.80
2019-01-14T20:40:49.679Z,12.43
2019-01-14T20:43:30.277Z,8.70
2019-01-14T20:46:16.774Z,8.80
2019-01-14T20:48:57.587Z,12.00
2019-01-14T20:51:43.860Z,6.87
2019-01-14T20:54:25.638Z,9.70
2019-01-14T20:57:12.032Z,12.53
2019-01-14T20:59:52.992Z,15.50
2019-01-14T21:02:39.495Z,8.80
2019-01-14T21:05:19.365Z,7.60
2019-01-14T21:08:05.875Z,10.03
2019-01-14T21:10:45.909Z,5.97
2019-01-14T21:13:32.403Z,7.30
2019-01-14T21:16:12.613Z,22.97
2019-01-14T21:18:59.949Z,7.87
2019-01-14T21:21:40.334Z,4.43
2019-01-14T21:24:26.589Z,8.23
2019-01-14T21:27:07.071Z,11.30
2019-01-14T21:29:47.342Z,9.50
2019-01-14T21:32:28.290Z,9.00
2019-01-14T21:35:14.884Z,8.50
2019-01-14T21:37:55.361Z,10.77
2019-01-14T21:40:41.546Z,7.80
2019-01-14T21:43:21.403Z,4.30
2019-01-14T21:46:07.674Z,9.47
2019-01-14T21:48:48.759Z,6.50
2019-01-14T21:51:35.219Z,9.27
2019-01-14T21:54:14.796Z,7.73
2019-01-14T21:57:01.266Z,4.40
2019-01-14T21:59:41.168Z,7.40
2019-01-14T22:02:27.622Z,7.83
2019-01-14T22:05:07.297Z,5.40
2019-01-14T22:07:53.864Z,14.73
2019-01-14T22:10:36.144Z,12.47
2019-01-14T22:13:22.437Z,6.43
2019-01-14T22:16:02.305Z,5.50
2019-01-14T22:18:48.877Z,10.57
2019-01-14T22:21:31.220Z,9.23
2019-01-14T22:24:11.470Z,9.87
2019-01-14T22:26:57.678Z,9.13
2019-01-14T22:29:37.816Z,11.20
2019-01-14T22:32:24.269Z,9.80
2019-01-14T22:35:03.963Z,6.43
2019-01-14T22:37:50.464Z,5.77
2019-01-14T22:40:37.484Z,3.70
2019-01-14T22:43:23.689Z,8.03
2019-01-14T22:46:03.702Z,8.63
2019-01-14T22:48:45.032Z,5.90
2019-01-14T22:51:25.258Z,11.90
2019-01-14T22:54:05.966Z,3.90
2019-01-14T22:56:52.695Z,12.00
2019-01-14T22:59:33.262Z,8.50
2019-01-14T23:02:19.704Z,8.60
2019-01-14T23:05:02.403Z,8.77
2019-01-14T23:07:49.707Z,7.47
2019-01-14T23:10:29.977Z,16.23
2019-01-14T23:13:16.193Z,7.10
2019-01-14T23:15:58.159Z,13.03
2019-01-14T23:18:44.755Z,5.50
2019-01-14T23:21:24.890Z,5.80
2019-01-14T23:24:11.474Z,8.60
2019-01-14T23:26:50.883Z,7.33
2019-01-14T23:29:37.116Z,4.43
2019-01-14T23:32:18.027Z,10.13
2019-01-14T23:38:06.757Z,7.53
2019-01-14T23:40:47.314Z,4.10
2019-01-14T23:43:33.777Z,4.20
2019-01-14T23:46:16.798Z,9.77
2019-01-14T23:48:57.692Z,11.47
2019-01-14T23:51:38.058Z,3.20
2019-01-14T23:54:24.336Z,6.47
2019-01-14T23:57:05.044Z,3.90
2019-01-14T23:59:51.266Z,6.87
